createdAt,value
2022-10-04T00:01:06.606Z,3.70
2022-10-04T00:03:41.387Z,3.20
2022-10-04T00:06:20.354Z,3.10
2022-10-04T00:08:53.322Z,2.70
2022-10-04T00:11:26.413Z,2.70
2022-10-04T00:13:58.929Z,2.30
2022-10-04T00:16:31.508Z,2.40
2022-10-04T00:19:24.558Z,3.50
2022-10-04T00:22:22.941Z,3.50
2022-10-04T00:25:18.419Z,2.70
2022-10-04T00:28:24.768Z,2.80
2022-10-04T00:31:17.328Z,2.70
2022-10-04T00:33:48.478Z,2.80
2022-10-04T00:36:40.415Z,2.40
2022-10-04T00:39:39.970Z,1.90
2022-10-04T00:42:34.082Z,3.20
2022-10-04T00:45:10.475Z,2.50
2022-10-04T00:48:05.545Z,2.70
2022-10-04T00:50:42.000Z,2.70
2022-10-04T00:53:22.134Z,2.60
2022-10-04T00:55:56.980Z,2.50
2022-10-04T00:58:32.559Z,2.70
2022-10-04T01:01:04.011Z,2.60
2022-10-04T01:03:37.324Z,1.70
2022-10-04T01:06:14.083Z,1.50
2022-10-04T01:08:51.207Z,2.90
2022-10-04T01:11:24.243Z,2.90
2022-10-04T01:13:58.484Z,2.10
2022-10-04T01:16:29.212Z,2.20
2022-10-04T01:19:28.467Z,1.60
2022-10-04T01:22:11.368Z,2.10
2022-10-04T01:24:44.673Z,2.20
2022-10-04T01:27:33.735Z,1.50
2022-10-04T01:30:06.265Z,2.20
2022-10-04T01:32:36.381Z,1.90
2022-10-04T01:35:06.922Z,2.60
2022-10-04T01:37:35.467Z,2.30
2022-10-04T01:40:09.460Z,2.50
2022-10-04T01:42:45.311Z,2.50
2022-10-04T01:45:23.579Z,2.00
2022-10-04T01:47:59.266Z,2.00
2022-10-04T01:50:33.777Z,2.00
2022-10-04T01:53:11.669Z,2.20
2022-10-04T01:55:44.735Z,1.50
2022-10-04T01:58:17.752Z,1.80
2022-10-04T02:00:51.319Z,1.90
2022-10-04T02:03:24.773Z,1.90
2022-10-04T02:05:58.492Z,2.00
2022-10-04T02:08:30.224Z,1.60
2022-10-04T02:11:00.583Z,1.90
2022-10-04T02:13:36.953Z,1.70
2022-10-04T02:16:10.529Z,1.60
2022-10-04T02:18:43.159Z,1.70
2022-10-04T02:21:14.984Z,1.50
2022-10-04T02:23:44.816Z,2.00
2022-10-04T02:26:14.408Z,1.90
2022-10-04T02:28:43.050Z,1.40
2022-10-04T02:31:32.414Z,1.40
2022-10-04T02:34:04.177Z,1.40
2022-10-04T02:36:34.957Z,1.30
2022-10-04T02:39:06.380Z,1.20
2022-10-04T02:41:39.852Z,1.70
2022-10-04T02:44:15.688Z,1.20
2022-10-04T02:46:52.218Z,1.20
2022-10-04T02:49:31.464Z,0.90
2022-10-04T02:52:09.796Z,1.40
2022-10-04T02:54:46.736Z,2.10
2022-10-04T02:57:19.356Z,1.30
2022-10-04T02:59:49.145Z,1.20
2022-10-04T03:02:29.517Z,1.30
2022-10-04T03:05:05.369Z,1.50
2022-10-04T03:07:36.909Z,1.30
2022-10-04T03:10:11.558Z,1.80
2022-10-04T03:12:41.076Z,1.50
2022-10-04T03:15:13.842Z,2.10
2022-10-04T03:17:44.250Z,1.90
2022-10-04T03:20:20.620Z,2.00
2022-10-04T03:22:55.040Z,1.90
2022-10-04T03:25:30.134Z,1.60
2022-10-04T03:28:02.575Z,1.90
2022-10-04T03:30:31.732Z,1.60
2022-10-04T03:33:00.774Z,1.80
2022-10-04T03:35:33.126Z,2.10
2022-10-04T03:38:05.286Z,1.30
2022-10-04T03:40:37.279Z,1.90
2022-10-04T03:43:06.620Z,2.10
2022-10-04T03:45:37.621Z,2.60
2022-10-04T03:48:14.257Z,1.70
2022-10-04T03:50:47.542Z,2.50
2022-10-04T03:53:28.012Z,2.10
2022-10-04T03:56:02.108Z,2.40
2022-10-04T03:58:36.657Z,2.50
2022-10-04T04:01:17.429Z,2.40
2022-10-04T04:04:22.505Z,2.30
2022-10-04T04:07:01.088Z,2.20
2022-10-04T04:09:41.640Z,1.70
2022-10-04T04:12:19.696Z,2.20
2022-10-04T04:17:39.082Z,2.40
2022-10-04T04:20:20.611Z,2.50
2022-10-04T04:22:57.751Z,2.60
2022-10-04T04:25:32.277Z,2.40
2022-10-04T04:28:08.055Z,2.40
2022-10-04T04:30:40.664Z,3.20
2022-10-04T04:33:23.129Z,2.20
2022-10-04T04:36:05.597Z,2.40
2022-10-04T04:38:35.658Z,3.00
2022-10-04T04:41:11.881Z,2.60
2022-10-04T04:43:46.832Z,2.40
2022-10-04T04:46:29.723Z,2.20
2022-10-04T04:49:05.374Z,2.50
2022-10-04T04:51:34.214Z,1.80
2022-10-04T04:54:06.525Z,2.30
2022-10-04T04:56:37.263Z,1.70
2022-10-04T04:59:12.217Z,1.90
2022-10-04T05:01:46.218Z,2.00
2022-10-04T05:04:22.989Z,1.70
2022-10-04T05:07:15.432Z,2.30
2022-10-04T05:09:44.928Z,1.80
2022-10-04T05:12:20.477Z,2.00
2022-10-04T05:14:51.684Z,1.90
2022-10-04T05:17:23.931Z,1.80
2022-10-04T05:20:00.938Z,2.10
2022-10-04T05:22:31.238Z,1.60
2022-10-04T05:25:07.137Z,1.90
2022-10-04T05:27:39.254Z,2.00
2022-10-04T05:30:18.866Z,1.40
2022-10-04T05:32:59.949Z,2.10
2022-10-04T05:35:41.069Z,2.00
2022-10-04T05:38:18.485Z,1.90
2022-10-04T05:40:56.675Z,1.80
2022-10-04T05:43:39.776Z,1.70
2022-10-04T05:46:23.905Z,1.50
2022-10-04T05:48:59.455Z,2.30
2022-10-04T05:51:30.827Z,2.00
2022-10-04T05:54:05.568Z,1.50
2022-10-04T05:57:04.226Z,2.00
2022-10-04T05:59:51.343Z,2.80
2022-10-04T06:02:32.313Z,6.00
2022-10-04T06:05:15.228Z,2.40
2022-10-04T06:07:50.502Z,3.80
2022-10-04T06:10:50.801Z,2.40
2022-10-04T06:13:41.391Z,4.20
2022-10-04T06:16:24.893Z,4.10
2022-10-04T06:19:15.530Z,6.70
2022-10-04T06:22:02.374Z,5.40
2022-10-04T06:24:36.720Z,2.40
2022-10-04T06:27:11.903Z,5.30
2022-10-04T06:29:47.641Z,7.90
2022-10-04T06:32:36.743Z,2.60
2022-10-04T06:35:30.552Z,3.80
2022-10-04T06:38:23.456Z,2.60
2022-10-04T06:41:29.677Z,2.10
2022-10-04T06:44:16.464Z,3.30
2022-10-04T06:46:50.108Z,3.70
2022-10-04T06:49:38.805Z,2.50
2022-10-04T06:52:36.876Z,3.30
2022-10-04T06:55:19.366Z,2.50
2022-10-04T06:58:08.160Z,2.80
2022-10-04T07:03:17.270Z,2.40
2022-10-04T07:05:50.695Z,2.90
2022-10-04T07:08:31.236Z,2.40
2022-10-04T07:11:06.512Z,2.50
2022-10-04T07:13:48.749Z,2.20
2022-10-04T07:16:28.735Z,1.90
2022-10-04T07:19:21.837Z,2.30
2022-10-04T07:21:58.208Z,1.70
2022-10-04T07:24:33.806Z,1.30
2022-10-04T07:27:08.065Z,1.90
2022-10-04T07:29:46.073Z,2.80
2022-10-04T07:34:51.232Z,3.70
2022-10-04T07:37:21.253Z,2.30
2022-10-04T07:39:56.387Z,2.00
2022-10-04T07:42:31.103Z,2.00
2022-10-04T07:45:11.076Z,2.10
2022-10-04T07:47:39.350Z,2.70
2022-10-04T07:50:26.565Z,1.60
2022-10-04T07:53:09.153Z,2.30
2022-10-04T07:55:46.593Z,1.90
2022-10-04T07:58:25.753Z,1.60
2022-10-04T08:01:00.579Z,2.60
2022-10-04T08:03:55.578Z,1.50
2022-10-04T08:06:33.665Z,1.30
2022-10-04T08:09:23.471Z,3.00
2022-10-04T08:12:04.648Z,3.50
2022-10-04T08:14:52.585Z,2.70
2022-10-04T08:17:32.384Z,2.30
2022-10-04T08:20:20.641Z,1.90
2022-10-04T08:22:58.726Z,1.30
2022-10-04T08:28:27.207Z,1.90
2022-10-04T08:31:13.629Z,1.00
2022-10-04T08:33:57.705Z,1.30
2022-10-04T08:36:39.573Z,1.80
2022-10-04T08:39:24.994Z,2.20
2022-10-04T08:42:26.278Z,2.40
2022-10-04T08:45:22.954Z,1.50
2022-10-04T08:48:24.136Z,1.30
2022-10-04T08:51:35.691Z,0.90
2022-10-04T08:54:40.411Z,0.90
2022-10-04T08:57:37.844Z,1.20
2022-10-04T09:00:16.526Z,1.10
2022-10-04T09:05:54.017Z,1.10
2022-10-04T09:08:59.596Z,0.90
2022-10-04T09:12:00.006Z,0.90
2022-10-04T09:14:57.089Z,0.90
2022-10-04T09:17:38.089Z,0.80
2022-10-04T09:20:39.393Z,0.80
2022-10-04T09:23:29.760Z,0.90
2022-10-04T09:26:14.334Z,0.80
2022-10-04T09:29:08.732Z,0.70
2022-10-04T09:32:14.372Z,0.90
2022-10-04T09:34:57.621Z,0.80
2022-10-04T09:37:45.748Z,0.70
2022-10-04T09:40:38.665Z,0.60
2022-10-04T09:43:49.537Z,0.80
2022-10-04T09:46:47.734Z,2.00
2022-10-04T09:49:38.059Z,1.20
2022-10-04T09:52:23.311Z,1.10
2022-10-04T09:55:24.902Z,1.90
2022-10-04T09:58:09.902Z,1.30
2022-10-04T10:00:47.124Z,1.20
2022-10-04T10:03:46.706Z,1.00
2022-10-04T10:06:28.137Z,1.30
2022-10-04T10:09:11.439Z,1.50
2022-10-04T10:12:16.669Z,0.90
2022-10-04T10:15:04.773Z,1.20
2022-10-04T10:17:41.339Z,1.00
2022-10-04T10:20:44.818Z,2.30
2022-10-04T10:23:37.787Z,1.30
2022-10-04T10:26:34.022Z,1.20
2022-10-04T10:29:36.883Z,1.00
2022-10-04T10:32:27.585Z,1.30
2022-10-04T10:35:23.851Z,1.50
2022-10-04T10:38:14.854Z,0.90
2022-10-04T10:40:59.864Z,1.40
2022-10-04T10:43:52.164Z,2.90
2022-10-04T10:46:44.993Z,1.00
2022-10-04T10:49:44.535Z,1.70
2022-10-04T10:55:18.948Z,1.20
2022-10-04T10:58:14.291Z,2.90
2022-10-04T11:00:53.064Z,1.20
2022-10-04T11:03:54.865Z,1.00
2022-10-04T11:07:17.882Z,1.70
2022-10-04T11:10:18.060Z,1.00
2022-10-04T11:13:05.030Z,1.20
2022-10-04T11:16:07.222Z,1.60
2022-10-04T11:19:11.433Z,2.10
2022-10-04T11:22:26.929Z,1.00
2022-10-04T11:25:24.862Z,2.30
2022-10-04T11:28:05.168Z,1.50
2022-10-04T11:31:01.017Z,1.00
2022-10-04T11:34:02.764Z,2.40
2022-10-04T11:36:42.095Z,1.70
2022-10-04T11:39:38.631Z,1.60
2022-10-04T11:45:07.662Z,1.70
2022-10-04T11:47:51.404Z,1.00
2022-10-04T11:50:38.350Z,1.40
2022-10-04T11:53:34.006Z,1.40
2022-10-04T11:56:35.350Z,1.10
2022-10-04T11:59:26.986Z,1.40
2022-10-04T12:02:16.810Z,1.70
2022-10-04T12:05:00.216Z,1.30
2022-10-04T12:07:42.706Z,1.70
2022-10-04T12:10:22.722Z,2.50
2022-10-04T12:13:26.052Z,1.20
2022-10-04T12:16:12.865Z,1.40
2022-10-04T12:19:06.510Z,1.40
2022-10-04T12:22:14.424Z,2.10
2022-10-04T12:25:10.426Z,1.20
2022-10-04T12:28:11.020Z,1.70
2022-10-04T12:31:17.049Z,4.60
2022-10-04T12:33:53.445Z,1.20
2022-10-04T12:36:34.657Z,1.90
2022-10-04T12:39:16.096Z,2.90
2022-10-04T12:41:56.995Z,3.40
2022-10-04T12:44:41.061Z,2.60
2022-10-04T12:47:50.571Z,2.40
2022-10-04T12:50:31.487Z,2.40
2022-10-04T12:53:13.950Z,1.80
2022-10-04T12:56:01.689Z,1.50
2022-10-04T12:58:45.463Z,1.40
2022-10-04T13:01:21.764Z,1.10
2022-10-04T13:04:25.834Z,3.00
2022-10-04T13:07:10.769Z,3.50
2022-10-04T13:10:19.234Z,1.90
2022-10-04T13:13:13.879Z,3.40
2022-10-04T13:18:50.070Z,1.50
2022-10-04T13:21:41.490Z,1.40
2022-10-04T13:24:22.771Z,2.30
2022-10-04T13:26:58.512Z,1.80
2022-10-04T13:29:33.466Z,1.20
2022-10-04T13:32:10.744Z,1.60
2022-10-04T13:34:47.650Z,1.00
2022-10-04T13:37:35.321Z,1.40
2022-10-04T13:40:28.543Z,1.00
2022-10-04T13:43:19.290Z,1.50
2022-10-04T13:46:07.083Z,1.40
2022-10-04T13:48:51.100Z,1.70
2022-10-04T13:51:39.536Z,1.40
2022-10-04T13:54:37.022Z,1.60
2022-10-04T13:57:20.727Z,1.20
2022-10-04T13:59:59.440Z,1.40
2022-10-04T14:03:06.177Z,1.70
2022-10-04T14:06:03.956Z,1.60
2022-10-04T14:09:05.453Z,1.30
2022-10-04T14:12:09.259Z,2.30
2022-10-04T14:15:15.153Z,0.90
2022-10-04T14:18:22.401Z,1.20
2022-10-04T14:21:40.760Z,2.50
2022-10-04T14:24:41.798Z,1.70
2022-10-04T14:27:43.054Z,1.30
2022-10-04T14:30:19.933Z,2.20
2022-10-04T14:33:20.266Z,3.70
2022-10-04T14:35:57.264Z,4.50
2022-10-04T14:38:53.418Z,5.30
2022-10-04T14:41:52.860Z,2.90
2022-10-04T14:44:45.311Z,6.20
2022-10-04T14:47:42.601Z,4.20
2022-10-04T14:50:35.538Z,2.50
2022-10-04T14:53:19.385Z,5.60
2022-10-04T14:56:05.783Z,3.70
2022-10-04T14:58:46.601Z,2.60
2022-10-04T15:01:24.112Z,2.20
2022-10-04T15:04:13.978Z,2.60
2022-10-04T15:06:48.771Z,2.60
2022-10-04T15:09:49.848Z,2.50
2022-10-04T15:12:51.891Z,3.60
2022-10-04T15:15:54.541Z,3.50
2022-10-04T15:18:37.277Z,3.70
2022-10-04T15:21:20.693Z,2.90
2022-10-04T15:23:54.616Z,3.40
2022-10-04T15:26:50.305Z,3.80
2022-10-04T15:29:27.277Z,3.30
2022-10-04T15:32:08.134Z,3.20
2022-10-04T15:34:46.471Z,4.10
2022-10-04T15:40:22.427Z,4.30
2022-10-04T15:43:06.017Z,4.70
2022-10-04T15:46:03.064Z,3.00
2022-10-04T15:48:49.821Z,2.90
2022-10-04T15:51:35.010Z,3.60
2022-10-04T15:54:13.998Z,4.20
2022-10-04T15:56:52.449Z,5.80
2022-10-04T15:59:36.064Z,6.90
2022-10-04T16:02:55.143Z,7.50
2022-10-04T16:05:38.968Z,6.10
2022-10-04T16:08:26.114Z,8.70
2022-10-04T16:11:09.790Z,7.00
2022-10-04T16:13:59.591Z,4.30
2022-10-04T16:16:52.880Z,3.40
2022-10-04T16:19:38.569Z,5.50
2022-10-04T16:22:15.477Z,6.30
2022-10-04T16:24:48.381Z,4.50
2022-10-04T16:28:06.025Z,4.00
2022-10-04T16:30:42.826Z,4.90
2022-10-04T16:33:29.705Z,4.00
2022-10-04T16:36:09.874Z,3.40
2022-10-04T16:39:06.925Z,3.20
2022-10-04T16:41:43.688Z,2.50
2022-10-04T16:44:30.759Z,2.70
2022-10-04T16:47:14.249Z,2.40
2022-10-04T16:49:50.526Z,3.20
2022-10-04T16:52:32.229Z,3.00
2022-10-04T16:55:23.414Z,3.30
2022-10-04T16:58:32.433Z,3.60
2022-10-04T17:01:50.603Z,3.50
2022-10-04T17:07:03.551Z,3.40
2022-10-04T17:09:37.251Z,3.80
2022-10-04T17:12:18.354Z,4.10
2022-10-04T17:15:30.467Z,3.90
2022-10-04T17:18:15.896Z,3.70
2022-10-04T17:21:04.278Z,5.40
2022-10-04T17:24:16.245Z,5.90
2022-10-04T17:27:14.735Z,6.20
2022-10-04T17:30:02.051Z,6.90
2022-10-04T17:32:45.162Z,7.50
2022-10-04T17:35:46.533Z,7.90
2022-10-04T17:38:23.712Z,7.50
2022-10-04T17:41:14.203Z,6.60
2022-10-04T17:44:05.601Z,7.10
2022-10-04T17:46:44.805Z,5.80
2022-10-04T17:49:49.270Z,6.30
2022-10-04T17:52:43.313Z,5.00
2022-10-04T18:08:47.264Z,9.60
2022-10-04T18:11:27.620Z,6.70
2022-10-04T18:14:04.283Z,6.60
2022-10-04T18:16:51.856Z,6.30
2022-10-04T18:19:41.497Z,5.70
2022-10-04T18:22:19.009Z,5.70
2022-10-04T18:25:18.498Z,4.80
2022-10-04T18:28:01.774Z,6.20
2022-10-04T18:30:59.755Z,6.10
2022-10-04T18:33:50.415Z,5.50
2022-10-04T18:36:36.213Z,5.30
2022-10-04T18:39:24.155Z,6.30
2022-10-04T18:42:24.614Z,6.20
2022-10-04T18:45:08.032Z,6.00
2022-10-04T18:47:53.698Z,5.30
2022-10-04T18:50:46.924Z,5.40
2022-10-04T18:53:53.094Z,6.00
2022-10-04T18:56:33.772Z,6.30
2022-10-04T18:59:37.671Z,5.90
2022-10-04T19:02:26.018Z,6.90
2022-10-04T19:09:20.639Z,5.30
2022-10-04T19:12:20.212Z,5.60
2022-10-04T19:15:01.812Z,4.40
2022-10-04T19:17:50.769Z,4.90
2022-10-04T19:20:36.142Z,4.20
2022-10-04T19:23:19.084Z,5.10
2022-10-04T19:26:26.213Z,5.10
2022-10-04T19:28:44.773Z,4.60
2022-10-04T19:31:21.411Z,3.90
2022-10-04T19:33:55.353Z,4.60
2022-10-04T19:36:36.068Z,4.50
2022-10-04T19:39:21.955Z,4.70
2022-10-04T19:41:57.027Z,4.40
2022-10-04T19:44:51.830Z,4.50
2022-10-04T19:47:35.910Z,4.40
2022-10-04T19:50:17.276Z,4.50
2022-10-04T19:52:53.080Z,4.70
2022-10-04T19:55:31.817Z,4.00
2022-10-04T19:58:13.671Z,4.70
2022-10-04T20:00:42.200Z,4.30
2022-10-04T20:03:12.384Z,4.40
2022-10-04T20:05:46.350Z,4.80
2022-10-04T20:08:17.262Z,4.90
2022-10-04T20:10:46.004Z,4.10
2022-10-04T20:13:24.678Z,4.40
2022-10-04T20:15:59.891Z,4.40
2022-10-04T20:19:09.107Z,4.40
2022-10-04T20:21:37.636Z,3.90
2022-10-04T20:24:16.633Z,4.20
2022-10-04T20:26:54.053Z,4.90
2022-10-04T20:30:06.142Z,4.40
2022-10-04T20:32:59.108Z,4.30
2022-10-04T20:36:10.991Z,4.80
2022-10-04T20:38:48.117Z,4.90
2022-10-04T20:42:22.102Z,4.70
2022-10-04T20:44:58.466Z,4.50
2022-10-04T20:47:43.549Z,5.10
2022-10-04T20:50:34.222Z,5.10
2022-10-04T20:53:14.335Z,5.30
2022-10-04T20:55:45.012Z,4.60
2022-10-04T20:58:28.042Z,4.60
2022-10-04T21:00:59.019Z,4.30
2022-10-04T21:03:28.029Z,4.00
2022-10-04T21:06:09.299Z,4.70
2022-10-04T21:08:38.454Z,4.70
2022-10-04T21:11:20.234Z,5.10
2022-10-04T21:13:52.175Z,5.10
2022-10-04T21:16:42.288Z,6.30
2022-10-04T21:19:48.347Z,5.10
2022-10-04T21:22:39.359Z,5.10
2022-10-04T21:25:32.832Z,4.70
2022-10-04T21:28:29.529Z,5.00
2022-10-04T21:31:05.193Z,4.00
2022-10-04T21:33:37.812Z,4.70
2022-10-04T21:36:07.279Z,5.20
2022-10-04T21:38:36.200Z,5.70
2022-10-04T21:41:05.452Z,6.20
2022-10-04T21:43:37.030Z,5.40
2022-10-04T21:46:07.742Z,4.90
2022-10-04T21:48:38.840Z,5.40
2022-10-04T21:51:09.673Z,5.00
2022-10-04T21:53:38.353Z,5.00
2022-10-04T21:56:07.297Z,4.60
2022-10-04T21:58:35.685Z,4.50
2022-10-04T22:01:05.258Z,4.50
2022-10-04T22:03:35.673Z,4.90
2022-10-04T22:06:04.102Z,5.20
2022-10-04T22:08:32.427Z,4.80
2022-10-04T22:11:01.152Z,4.80
2022-10-04T22:13:29.634Z,5.00
2022-10-04T22:15:58.113Z,4.60
2022-10-04T22:18:26.704Z,5.10
2022-10-04T22:20:57.605Z,4.70
2022-10-04T22:23:28.161Z,4.80
2022-10-04T22:25:56.526Z,4.90
2022-10-04T22:28:29.554Z,4.60
2022-10-04T22:30:57.874Z,5.10
2022-10-04T22:33:33.415Z,4.80
2022-10-04T22:36:13.055Z,5.50
2022-10-04T22:38:44.432Z,4.10
2022-10-04T22:41:14.648Z,5.10
2022-10-04T22:43:43.522Z,4.70
2022-10-04T22:46:15.837Z,4.70
2022-10-04T22:48:46.165Z,4.50
2022-10-04T22:51:15.355Z,4.50
2022-10-04T22:53:45.647Z,5.30
2022-10-04T22:56:15.070Z,4.60
2022-10-04T22:58:43.524Z,4.70
2022-10-04T23:01:14.460Z,4.70
2022-10-04T23:03:46.498Z,4.80
2022-10-04T23:06:16.442Z,5.40
2022-10-04T23:08:45.261Z,5.00
2022-10-04T23:11:14.062Z,4.30
2022-10-04T23:13:42.508Z,5.10
2022-10-04T23:16:17.179Z,4.90
2022-10-04T23:18:45.825Z,4.80
2022-10-04T23:21:25.369Z,5.50
2022-10-04T23:23:54.507Z,4.70
2022-10-04T23:26:27.178Z,4.70
2022-10-04T23:28:55.683Z,4.90
2022-10-04T23:31:25.880Z,5.30
2022-10-04T23:33:56.786Z,5.40
2022-10-04T23:36:25.364Z,5.20
2022-10-04T23:38:58.964Z,5.40
2022-10-04T23:41:28.163Z,5.20
2022-10-04T23:43:56.673Z,5.90
2022-10-04T23:46:25.280Z,6.10
2022-10-04T23:48:54.525Z,5.60
2022-10-04T23:51:22.910Z,5.20
2022-10-04T23:53:58.414Z,5.60
2022-10-04T23:56:29.240Z,4.90
2022-10-04T23:58:59.217Z,4.80
